createdAt,value
2019-05-20T00:00:57.324Z,99.99
2019-05-20T00:01:57.544Z,99.99
2019-05-20T00:02:57.771Z,99.99
2019-05-20T00:03:58.003Z,99.99
2019-05-20T00:04:58.231Z,99.99
2019-05-20T00:05:58.479Z,99.99
2019-05-20T00:06:58.689Z,99.99
2019-05-20T00:07:58.916Z,99.99
2019-05-20T00:08:59.143Z,99.99
2019-05-20T00:09:59.371Z,99.99
2019-05-20T00:10:59.601Z,99.99
2019-05-20T00:11:59.828Z,99.99
2019-05-20T00:13:00.057Z,99.99
2019-05-20T00:14:00.283Z,99.99
2019-05-20T00:15:00.508Z,99.99
2019-05-20T00:16:00.739Z,99.99
2019-05-20T00:17:00.960Z,99.99
2019-05-20T00:18:01.184Z,99.99
2019-05-20T00:19:01.408Z,99.99
2019-05-20T00:20:01.672Z,99.99
2019-05-20T00:21:01.860Z,99.99
2019-05-20T00:22:02.086Z,99.99
2019-05-20T00:23:02.313Z,99.99
2019-05-20T00:24:02.550Z,99.99
2019-05-20T00:25:02.763Z,99.99
2019-05-20T00:26:02.996Z,99.99
2019-05-20T00:27:03.214Z,99.99
2019-05-20T00:28:03.440Z,99.99
2019-05-20T00:29:03.665Z,99.99
2019-05-20T00:30:03.896Z,99.99
2019-05-20T00:31:04.123Z,99.99
2019-05-20T00:32:04.347Z,99.99
2019-05-20T00:33:04.575Z,99.99
2019-05-20T00:34:04.801Z,99.99
2019-05-20T00:35:05.033Z,99.99
2019-05-20T00:36:05.251Z,99.99
2019-05-20T00:37:05.480Z,99.99
2019-05-20T00:38:05.729Z,99.99
2019-05-20T00:39:05.949Z,99.99
2019-05-20T00:40:06.175Z,99.99
2019-05-20T00:41:06.389Z,99.99
2019-05-20T00:42:06.616Z,99.99
2019-05-20T00:43:06.841Z,99.99
2019-05-20T00:44:07.085Z,99.99
2019-05-20T00:45:07.302Z,99.99
2019-05-20T00:46:07.532Z,99.99
2019-05-20T00:47:07.763Z,99.99
2019-05-20T00:48:07.980Z,99.99
2019-05-20T00:49:08.213Z,99.99
2019-05-20T00:50:08.434Z,99.99
2019-05-20T00:51:08.663Z,99.99
2019-05-20T00:52:08.893Z,99.99
2019-05-20T00:53:09.120Z,99.99
2019-05-20T00:54:09.342Z,99.99
2019-05-20T00:55:09.573Z,99.99
2019-05-20T00:56:09.799Z,99.99
2019-05-20T00:57:10.024Z,99.99
2019-05-20T00:58:10.247Z,99.99
2019-05-20T00:59:10.482Z,99.99
2019-05-20T01:00:10.717Z,99.99
2019-05-20T01:01:11.286Z,99.99
2019-05-20T01:02:11.150Z,99.99
2019-05-20T01:03:11.375Z,99.99
2019-05-20T01:04:11.600Z,99.99
2019-05-20T01:05:11.825Z,99.99
2019-05-20T01:06:12.046Z,99.99
2019-05-20T01:07:12.281Z,99.99
2019-05-20T01:08:12.502Z,99.99
2019-05-20T01:09:12.729Z,99.99
2019-05-20T01:10:12.957Z,99.99
2019-05-20T01:11:13.183Z,99.99
2019-05-20T01:12:13.405Z,99.99
2019-05-20T01:13:13.630Z,99.99
2019-05-20T01:14:13.860Z,99.99
2019-05-20T01:15:14.086Z,99.99
2019-05-20T01:16:14.313Z,99.99
2019-05-20T01:17:14.540Z,99.99
2019-05-20T01:18:14.771Z,99.99
2019-05-20T01:19:14.998Z,99.99
2019-05-20T01:20:15.226Z,99.99
2019-05-20T01:21:15.456Z,99.99
2019-05-20T01:22:15.679Z,99.99
2019-05-20T01:23:15.909Z,99.99
2019-05-20T01:24:16.135Z,99.99
2019-05-20T01:25:16.395Z,99.99
2019-05-20T01:26:16.593Z,99.99
2019-05-20T01:27:16.824Z,99.99
2019-05-20T01:28:17.044Z,99.99
2019-05-20T01:29:17.271Z,99.99
2019-05-20T01:30:17.502Z,99.99
2019-05-20T01:31:17.731Z,99.99
2019-05-20T01:32:17.953Z,99.99
2019-05-20T01:33:18.180Z,99.99
2019-05-20T01:34:18.407Z,99.99
2019-05-20T01:35:18.628Z,99.99
2019-05-20T01:36:18.857Z,99.99
2019-05-20T01:37:19.084Z,99.99
2019-05-20T01:38:19.311Z,99.99
2019-05-20T01:39:19.539Z,99.99
2019-05-20T01:40:19.769Z,99.99
2019-05-20T01:41:19.995Z,99.99
2019-05-20T01:42:20.225Z,99.99
2019-05-20T01:43:20.446Z,99.99
2019-05-20T01:44:20.673Z,99.99
2019-05-20T01:45:20.899Z,99.99
2019-05-20T01:46:21.123Z,99.99
2019-05-20T01:47:21.355Z,99.99
2019-05-20T01:48:21.582Z,99.99
2019-05-20T01:49:21.808Z,99.99
2019-05-20T01:50:22.041Z,99.99
2019-05-20T01:51:22.287Z,99.99
2019-05-20T01:52:22.485Z,99.99
2019-05-20T01:53:22.713Z,99.99
2019-05-20T01:54:22.935Z,99.99
2019-05-20T01:55:23.161Z,99.99
2019-05-20T01:56:23.389Z,99.99
2019-05-20T01:57:23.614Z,99.99
2019-05-20T01:58:23.843Z,99.99
2019-05-20T01:59:24.069Z,99.99
2019-05-20T02:00:24.295Z,99.99
2019-05-20T02:01:24.521Z,99.99
2019-05-20T02:02:24.745Z,99.99
2019-05-20T02:03:31.691Z,99.99
2019-05-20T02:04:25.200Z,99.99
2019-05-20T02:05:25.426Z,99.99
2019-05-20T02:06:25.653Z,99.99
2019-05-20T02:07:25.879Z,99.99
2019-05-20T02:08:26.124Z,99.99
2019-05-20T02:09:26.337Z,99.99
2019-05-20T02:10:26.572Z,99.99
2019-05-20T02:11:26.792Z,99.99
2019-05-20T02:12:27.027Z,99.99
2019-05-20T02:13:27.250Z,99.99
2019-05-20T02:14:27.477Z,99.99
2019-05-20T02:15:27.703Z,99.99
2019-05-20T02:16:27.935Z,99.99
2019-05-20T02:17:28.155Z,99.99
2019-05-20T02:18:28.396Z,99.99
2019-05-20T02:19:28.610Z,99.99
2019-05-20T02:20:28.840Z,99.99
2019-05-20T02:21:29.070Z,99.99
2019-05-20T02:22:29.296Z,99.99
2019-05-20T02:23:29.526Z,99.99
2019-05-20T02:24:29.747Z,99.99
2019-05-20T02:25:29.974Z,99.99
2019-05-20T02:26:30.201Z,99.99
2019-05-20T02:27:30.431Z,99.99
2019-05-20T02:28:30.659Z,99.99
2019-05-20T02:29:30.898Z,99.99
2019-05-20T02:30:31.112Z,99.99
2019-05-20T02:31:31.350Z,99.99
2019-05-20T02:32:31.566Z,99.99
2019-05-20T02:33:50.114Z,99.99
2019-05-20T02:34:32.049Z,99.99
2019-05-20T02:35:32.245Z,99.99
2019-05-20T02:36:32.473Z,99.99
2019-05-20T02:37:32.703Z,99.99
2019-05-20T02:38:32.928Z,99.99
2019-05-20T02:39:33.158Z,99.99
2019-05-20T02:40:33.378Z,99.99
2019-05-20T02:41:33.605Z,99.99
2019-05-20T02:42:33.831Z,99.99
2019-05-20T02:43:34.058Z,99.99
2019-05-20T02:44:34.274Z,99.99
2019-05-20T02:45:34.502Z,99.99
2019-05-20T02:46:34.734Z,99.99
2019-05-20T02:47:34.951Z,99.99
2019-05-20T02:48:35.176Z,99.99
2019-05-20T02:49:35.405Z,99.99
2019-05-20T02:50:35.629Z,99.99
2019-05-20T02:51:35.886Z,99.99
2019-05-20T02:52:36.087Z,99.99
2019-05-20T02:53:36.310Z,99.99
2019-05-20T02:54:36.541Z,99.99
2019-05-20T02:55:36.767Z,99.99
2019-05-20T02:56:36.994Z,99.99
2019-05-20T02:57:37.214Z,99.99
2019-05-20T02:58:37.460Z,99.99
2019-05-20T02:59:37.667Z,99.99
2019-05-20T03:00:37.896Z,99.99
2019-05-20T03:01:38.125Z,99.99
2019-05-20T03:02:38.350Z,99.99
2019-05-20T03:03:38.577Z,99.99
2019-05-20T03:04:38.802Z,99.99
2019-05-20T03:05:39.026Z,99.99
2019-05-20T03:06:39.257Z,99.99
2019-05-20T03:07:39.493Z,99.99
2019-05-20T03:08:39.709Z,99.99
2019-05-20T03:09:39.933Z,99.99
2019-05-20T03:10:40.165Z,99.99
2019-05-20T03:11:40.383Z,99.99
2019-05-20T03:12:40.615Z,99.99
2019-05-20T03:13:40.837Z,99.99
2019-05-20T03:14:41.120Z,99.99
2019-05-20T03:15:41.287Z,99.99
2019-05-20T03:16:41.515Z,99.99
2019-05-20T03:17:41.742Z,99.99
2019-05-20T03:18:41.980Z,99.99
2019-05-20T03:19:42.197Z,99.99
2019-05-20T03:20:42.426Z,99.99
2019-05-20T03:21:42.672Z,99.99
2019-05-20T03:22:42.882Z,99.99
2019-05-20T03:23:43.104Z,99.99
2019-05-20T03:24:43.328Z,99.99
2019-05-20T03:25:43.559Z,99.99
2019-05-20T03:26:43.790Z,99.99
2019-05-20T03:27:44.009Z,99.99
2019-05-20T03:28:44.236Z,99.99
2019-05-20T03:29:44.460Z,99.99
2019-05-20T03:30:44.695Z,99.99
2019-05-20T03:31:44.918Z,99.99
2019-05-20T03:32:45.146Z,99.99
2019-05-20T03:33:45.372Z,99.99
2019-05-20T03:34:54.020Z,99.99
2019-05-20T03:35:45.834Z,99.99
2019-05-20T03:36:46.057Z,99.99
2019-05-20T03:37:46.282Z,99.99
2019-05-20T03:38:46.504Z,99.99
2019-05-20T03:39:46.733Z,99.99
2019-05-20T03:40:46.958Z,99.99
2019-05-20T03:41:47.178Z,99.99
2019-05-20T03:42:47.413Z,99.99
2019-05-20T03:43:47.632Z,99.99
2019-05-20T03:44:47.861Z,99.99
2019-05-20T03:45:48.086Z,99.99
2019-05-20T03:46:48.316Z,99.99
2019-05-20T03:47:48.543Z,99.99
2019-05-20T03:48:48.770Z,99.99
2019-05-20T03:49:48.998Z,99.99
2019-05-20T03:50:49.224Z,99.99
2019-05-20T03:51:52.460Z,99.99
2019-05-20T03:52:49.681Z,99.99
2019-05-20T03:53:49.964Z,99.99
2019-05-20T03:54:50.127Z,99.99
2019-05-20T03:55:50.354Z,99.99
2019-05-20T03:56:50.581Z,99.99
2019-05-20T03:57:50.809Z,99.99
2019-05-20T03:58:51.037Z,99.99
2019-05-20T03:59:51.261Z,99.99
2019-05-20T04:00:51.491Z,99.99
2019-05-20T04:01:51.721Z,99.99
2019-05-20T04:02:51.952Z,99.99
2019-05-20T04:03:52.182Z,99.99
2019-05-20T04:05:02.461Z,99.99
2019-05-20T04:05:52.632Z,99.99
2019-05-20T04:06:52.863Z,99.99
2019-05-20T04:07:53.094Z,99.99
2019-05-20T04:08:53.313Z,99.99
2019-05-20T04:09:53.544Z,99.99
2019-05-20T04:10:53.780Z,99.99
2019-05-20T04:11:53.992Z,99.99
2019-05-20T04:12:54.226Z,99.99
2019-05-20T04:13:54.446Z,99.99
2019-05-20T04:14:54.676Z,99.99
2019-05-20T04:15:54.904Z,99.99
2019-05-20T04:16:55.134Z,99.99
2019-05-20T04:17:55.369Z,99.99
2019-05-20T04:18:55.623Z,99.99
2019-05-20T04:19:55.799Z,99.99
2019-05-20T04:20:56.033Z,99.99
2019-05-20T04:21:56.247Z,99.99
2019-05-20T04:22:56.477Z,99.99
2019-05-20T04:24:00.820Z,99.99
2019-05-20T04:24:56.935Z,99.99
2019-05-20T04:25:57.154Z,99.99
2019-05-20T04:26:57.385Z,99.99
2019-05-20T04:27:57.620Z,99.99
2019-05-20T04:28:57.844Z,99.99
2019-05-20T04:29:58.074Z,99.99
2019-05-20T04:30:58.308Z,99.99
2019-05-20T04:31:58.523Z,99.99
2019-05-20T04:32:58.753Z,99.99
2019-05-20T04:33:58.981Z,99.99
2019-05-20T04:34:59.209Z,99.99
2019-05-20T04:35:59.441Z,99.99
2019-05-20T04:36:59.665Z,99.99
2019-05-20T04:37:59.892Z,99.99
2019-05-20T04:39:00.124Z,99.99
2019-05-20T04:40:00.342Z,99.99
2019-05-20T04:41:00.566Z,99.99
2019-05-20T04:42:00.807Z,99.99
2019-05-20T04:43:01.029Z,99.99
2019-05-20T04:44:01.256Z,99.99
2019-05-20T04:45:01.607Z,99.99
2019-05-20T04:46:01.714Z,99.99
2019-05-20T04:47:01.938Z,99.99
2019-05-20T04:48:02.167Z,99.99
2019-05-20T04:49:02.393Z,99.99
2019-05-20T04:50:02.634Z,99.99
2019-05-20T04:51:02.851Z,99.99
2019-05-20T04:52:03.080Z,99.99
2019-05-20T04:53:03.307Z,99.99
2019-05-20T04:54:03.538Z,99.99
2019-05-20T04:55:03.755Z,99.99
2019-05-20T04:56:03.989Z,99.99
2019-05-20T04:57:04.213Z,99.99
2019-05-20T04:58:04.450Z,99.99
2019-05-20T04:59:04.689Z,99.99
2019-05-20T05:00:04.921Z,99.99
2019-05-20T05:01:05.146Z,99.99
2019-05-20T05:02:05.371Z,99.99
2019-05-20T05:03:05.599Z,99.99
2019-05-20T05:04:05.830Z,99.99
2019-05-20T05:05:06.057Z,99.99
2019-05-20T05:06:06.283Z,99.99
2019-05-20T05:07:06.518Z,99.99
2019-05-20T05:08:06.742Z,99.99
2019-05-20T05:09:06.971Z,99.99
2019-05-20T05:10:07.196Z,99.99
2019-05-20T05:11:07.423Z,99.99
2019-05-20T05:12:07.653Z,99.99
2019-05-20T05:13:07.889Z,99.99
2019-05-20T05:14:08.114Z,99.99
2019-05-20T05:15:08.425Z,99.99
2019-05-20T05:16:08.569Z,99.99
2019-05-20T05:17:08.801Z,99.99
2019-05-20T05:18:09.036Z,99.99
2019-05-20T05:19:09.267Z,99.99
2019-05-20T05:20:17.511Z,99.99
2019-05-20T05:21:09.728Z,99.99
2019-05-20T05:22:09.956Z,99.99
2019-05-20T05:23:10.189Z,99.99
2019-05-20T05:24:10.420Z,99.99
2019-05-20T05:25:10.647Z,99.99
2019-05-20T05:26:10.875Z,99.99
2019-05-20T05:27:11.102Z,99.99
2019-05-20T05:28:11.332Z,99.99
2019-05-20T05:29:11.560Z,99.99
2019-05-20T05:30:11.792Z,99.99
2019-05-20T05:31:12.019Z,99.99
2019-05-20T05:32:12.269Z,99.99
2019-05-20T05:33:12.478Z,99.99
2019-05-20T05:34:12.737Z,99.99
2019-05-20T05:35:12.945Z,99.99
2019-05-20T05:36:13.173Z,99.99
2019-05-20T05:37:13.407Z,99.99
2019-05-20T05:38:13.639Z,99.99
2019-05-20T05:39:13.869Z,99.99
2019-05-20T05:40:14.098Z,99.99
2019-05-20T05:41:14.332Z,99.99
2019-05-20T05:42:14.563Z,99.99
2019-05-20T05:43:14.787Z,99.99
2019-05-20T05:44:15.016Z,99.99
2019-05-20T05:45:15.245Z,99.99
2019-05-20T05:46:15.475Z,99.99
2019-05-20T05:47:15.704Z,99.99
2019-05-20T05:48:15.938Z,99.99
2019-05-20T05:49:16.163Z,99.99
2019-05-20T05:50:16.392Z,99.99
2019-05-20T05:51:16.619Z,99.99
2019-05-20T05:52:16.851Z,99.99
2019-05-20T05:53:17.077Z,99.99
2019-05-20T05:54:17.309Z,99.99
2019-05-20T05:55:17.540Z,99.99
2019-05-20T05:56:17.765Z,99.99
2019-05-20T05:57:17.998Z,99.99
2019-05-20T05:58:18.228Z,99.99
2019-05-20T05:59:18.457Z,99.99
2019-05-20T06:00:18.686Z,99.99
2019-05-20T06:01:18.921Z,99.99
2019-05-20T06:02:19.146Z,99.59
2019-05-20T06:03:19.380Z,98.77
2019-05-20T06:04:19.608Z,97.91
2019-05-20T06:05:19.841Z,97.52
2019-05-20T06:06:20.068Z,97.91
2019-05-20T06:07:20.304Z,97.33
2019-05-20T06:08:20.526Z,96.94
2019-05-20T06:09:20.762Z,96.22
2019-05-20T06:10:20.991Z,96.03
2019-05-20T06:11:21.233Z,95.84
2019-05-20T06:12:21.441Z,93.62
2019-05-20T06:13:21.669Z,92.18
2019-05-20T06:14:21.907Z,92.57
2019-05-20T06:15:22.130Z,93.62
2019-05-20T06:16:36.038Z,94.68
2019-05-20T06:17:22.594Z,94.78
2019-05-20T06:18:22.821Z,91.75
2019-05-20T06:19:23.057Z,93.57
2019-05-20T06:20:23.283Z,92.71
2019-05-20T06:21:23.513Z,91.12
2019-05-20T06:22:23.743Z,88.65
2019-05-20T06:23:23.973Z,87.02
2019-05-20T06:24:24.251Z,86.73
2019-05-20T06:25:24.442Z,84.17
2019-05-20T06:26:24.668Z,83.34
2019-05-20T06:27:24.891Z,84.17
2019-05-20T06:28:25.123Z,85.86
2019-05-20T06:29:25.359Z,86.58
2019-05-20T06:30:25.591Z,85.37
2019-05-20T06:31:25.830Z,83.96
2019-05-20T06:32:26.062Z,81.88
2019-05-20T06:33:26.281Z,79.85
2019-05-20T06:34:26.517Z,81.45
2019-05-20T06:35:26.749Z,81.02
2019-05-20T06:36:27.416Z,81.99
2019-05-20T06:37:27.212Z,80.68
2019-05-20T06:38:27.448Z,78.75
2019-05-20T06:39:27.682Z,79.14
2019-05-20T06:40:27.911Z,78.75
2019-05-20T06:41:28.140Z,79.56
2019-05-20T06:42:28.373Z,80.39
2019-05-20T06:43:28.608Z,80.64
2019-05-20T06:44:28.838Z,82.28
2019-05-20T06:45:29.072Z,80.54
2019-05-20T06:46:29.311Z,80.49
2019-05-20T06:47:29.540Z,81.60
2019-05-20T06:48:29.771Z,81.74
2019-05-20T06:49:30.006Z,82.96
2019-05-20T06:50:30.249Z,82.38
2019-05-20T06:51:30.474Z,80.83
2019-05-20T06:52:36.005Z,79.87
2019-05-20T06:53:30.940Z,80.49
2019-05-20T06:54:31.173Z,81.60
2019-05-20T06:55:31.410Z,82.76
2019-05-20T06:56:31.640Z,85.17
2019-05-20T06:57:31.877Z,80.83
2019-05-20T06:58:32.103Z,80.64
2019-05-20T06:59:32.333Z,85.67
2019-05-20T07:00:32.569Z,84.17
2019-05-20T07:01:32.804Z,83.59
2019-05-20T07:02:33.044Z,84.27
2019-05-20T07:03:33.273Z,84.65
2019-05-20T07:04:33.502Z,83.01
2019-05-20T07:05:33.742Z,85.09
2019-05-20T07:06:45.404Z,85.77
2019-05-20T07:07:34.204Z,84.94
2019-05-20T07:08:34.452Z,83.98
2019-05-20T07:09:34.670Z,84.36
2019-05-20T07:10:34.903Z,83.20
2019-05-20T07:11:35.138Z,83.25
2019-05-20T07:12:41.318Z,82.86
2019-05-20T07:13:35.593Z,82.28
2019-05-20T07:14:35.829Z,83.88
2019-05-20T07:15:36.060Z,85.86
2019-05-20T07:16:36.307Z,85.96
2019-05-20T07:17:36.534Z,86.63
2019-05-20T07:18:36.759Z,87.30
2019-05-20T07:19:36.990Z,86.19
2019-05-20T07:20:37.218Z,85.52
2019-05-20T07:21:37.453Z,86.00
2019-05-20T07:22:54.562Z,85.13
2019-05-20T07:23:37.925Z,85.03
2019-05-20T07:24:38.158Z,85.57
2019-05-20T07:25:38.390Z,86.35
2019-05-20T07:26:38.623Z,86.82
2019-05-20T07:27:38.855Z,88.17
2019-05-20T07:28:39.108Z,85.86
2019-05-20T07:29:39.327Z,86.25
2019-05-20T07:30:39.584Z,86.82
2019-05-20T07:31:39.793Z,88.95
2019-05-20T07:32:40.016Z,88.27
2019-05-20T07:33:40.252Z,87.50
2019-05-20T07:34:40.501Z,88.46
2019-05-20T07:35:40.726Z,88.65
2019-05-20T07:36:40.956Z,88.08
2019-05-20T07:37:41.191Z,88.95
2019-05-20T07:38:41.426Z,88.95
2019-05-20T07:39:41.662Z,89.81
2019-05-20T07:40:41.896Z,89.23
2019-05-20T07:41:42.129Z,88.65
2019-05-20T07:42:42.448Z,85.81
2019-05-20T07:43:42.601Z,85.33
2019-05-20T07:44:42.828Z,86.10
2019-05-20T07:45:43.066Z,88.12
2019-05-20T07:46:43.299Z,87.20
2019-05-20T07:47:43.537Z,84.31
2019-05-20T07:48:43.771Z,83.58
2019-05-20T07:49:43.997Z,83.77
2019-05-20T07:50:44.266Z,83.77
2019-05-20T07:51:44.459Z,84.64
2019-05-20T07:52:44.692Z,82.13
2019-05-20T07:53:44.931Z,81.93
2019-05-20T07:54:45.154Z,82.42
2019-05-20T07:55:45.403Z,80.58
2019-05-20T07:56:45.614Z,82.57
2019-05-20T07:57:45.857Z,81.70
2019-05-20T07:58:46.088Z,80.45
2019-05-20T07:59:46.333Z,80.30
2019-05-20T08:00:46.554Z,80.83
2019-05-20T08:01:46.788Z,82.51
2019-05-20T08:02:47.023Z,82.57
2019-05-20T08:03:47.255Z,84.21
2019-05-20T08:04:47.536Z,80.78
2019-05-20T08:05:47.719Z,81.55
2019-05-20T08:06:47.975Z,79.33
2019-05-20T08:07:52.532Z,79.81
2019-05-20T08:08:48.416Z,80.49
2019-05-20T08:09:48.658Z,79.52
2019-05-20T08:10:48.883Z,80.20
2019-05-20T08:11:49.120Z,80.30
2019-05-20T08:12:49.357Z,80.72
2019-05-20T08:13:49.587Z,79.08
2019-05-20T08:14:49.816Z,79.12
2019-05-20T08:15:50.108Z,78.73
2019-05-20T08:16:50.431Z,80.38
2019-05-20T08:17:50.517Z,80.41
2019-05-20T08:18:50.763Z,78.58
2019-05-20T08:19:50.978Z,74.32
2019-05-20T08:20:51.215Z,77.94
2019-05-20T08:21:51.451Z,76.78
2019-05-20T08:22:51.680Z,74.52
2019-05-20T08:23:51.926Z,74.75
2019-05-20T08:24:52.148Z,76.20
2019-05-20T08:25:52.373Z,73.39
2019-05-20T08:26:52.607Z,74.17
2019-05-20T08:27:52.842Z,75.13
2019-05-20T08:28:53.074Z,73.39
2019-05-20T08:29:53.307Z,73.01
2019-05-20T08:30:53.554Z,72.33
2019-05-20T08:31:53.778Z,72.88
2019-05-20T08:32:54.012Z,75.58
2019-05-20T08:33:54.270Z,73.46
2019-05-20T08:34:54.491Z,73.55
2019-05-20T08:35:54.722Z,76.64
2019-05-20T08:36:54.953Z,76.45
2019-05-20T08:37:55.190Z,75.78
2019-05-20T08:38:55.419Z,75.68
2019-05-20T08:39:55.652Z,74.00
2019-05-20T08:40:55.887Z,76.12
2019-05-20T08:41:56.126Z,73.22
2019-05-20T08:42:56.354Z,74.00
2019-05-20T08:43:56.580Z,76.95
2019-05-20T08:44:56.819Z,76.70
2019-05-20T08:45:57.065Z,76.70
2019-05-20T08:46:57.278Z,77.19
2019-05-20T08:47:57.515Z,77.57
2019-05-20T08:48:57.746Z,75.54
2019-05-20T08:49:58.045Z,77.90
2019-05-20T08:50:58.214Z,77.80
2019-05-20T08:51:58.464Z,77.51
2019-05-20T08:52:58.677Z,75.48
2019-05-20T08:53:58.905Z,75.78
2019-05-20T08:54:59.144Z,80.51
2019-05-20T08:55:59.380Z,72.20
2019-05-20T08:56:59.610Z,71.14
2019-05-20T08:57:59.860Z,73.16
2019-05-20T08:59:00.074Z,72.42
2019-05-20T09:00:00.316Z,71.84
2019-05-20T09:01:00.540Z,71.75
2019-05-20T09:02:00.775Z,74.27
2019-05-20T09:03:01.006Z,72.52
2019-05-20T09:04:01.242Z,72.78
2019-05-20T09:05:01.475Z,73.16
2019-05-20T09:06:01.715Z,75.10
2019-05-20T09:07:01.948Z,74.52
2019-05-20T09:08:03.931Z,74.29
2019-05-20T09:09:02.422Z,75.16
2019-05-20T09:10:02.655Z,75.64
2019-05-20T09:11:02.877Z,75.97
2019-05-20T09:12:03.140Z,76.64
2019-05-20T09:13:03.349Z,75.10
2019-05-20T09:14:03.612Z,72.72
2019-05-20T09:15:03.812Z,74.17
2019-05-20T09:16:04.049Z,73.49
2019-05-20T09:17:04.277Z,72.42
2019-05-20T09:18:04.516Z,73.63
2019-05-20T09:19:04.747Z,71.88
2019-05-20T09:20:04.977Z,70.53
2019-05-20T09:21:05.244Z,71.53
2019-05-20T09:22:05.453Z,70.72
2019-05-20T09:23:05.674Z,69.98
2019-05-20T09:24:05.916Z,70.27
2019-05-20T09:25:06.173Z,70.76
2019-05-20T09:26:06.373Z,71.53
2019-05-20T09:27:06.612Z,69.27
2019-05-20T09:28:06.840Z,70.59
2019-05-20T09:29:11.019Z,71.17
2019-05-20T09:30:07.351Z,71.23
2019-05-20T09:31:07.541Z,71.52
2019-05-20T09:32:07.781Z,71.42
2019-05-20T09:33:07.992Z,72.68
2019-05-20T09:34:08.243Z,73.55
2019-05-20T09:35:08.470Z,73.36
2019-05-20T09:36:08.693Z,74.04
2019-05-20T09:37:08.927Z,72.74
2019-05-20T09:38:19.543Z,72.36
2019-05-20T09:39:09.416Z,73.32
2019-05-20T09:40:09.628Z,73.32
2019-05-20T09:41:09.862Z,73.32
2019-05-20T09:42:10.142Z,75.10
2019-05-20T09:43:10.323Z,75.58
2019-05-20T09:44:10.578Z,73.84
2019-05-20T09:45:10.816Z,74.65
2019-05-20T09:46:11.026Z,74.36
2019-05-20T09:47:11.258Z,72.62
2019-05-20T09:48:11.532Z,70.72
2019-05-20T09:49:11.757Z,71.69
2019-05-20T09:50:11.994Z,72.36
2019-05-20T09:51:12.226Z,72.36
2019-05-20T09:52:12.470Z,70.53
2019-05-20T09:53:12.706Z,70.72
2019-05-20T09:54:12.936Z,70.62
2019-05-20T09:55:13.166Z,71.69
2019-05-20T09:56:13.403Z,70.62
2019-05-20T09:57:13.634Z,72.85
2019-05-20T09:58:13.866Z,72.21
2019-05-20T09:59:16.320Z,71.50
2019-05-20T10:00:14.332Z,71.59
2019-05-20T10:01:14.565Z,71.50
2019-05-20T10:02:14.806Z,70.72
2019-05-20T10:03:15.036Z,72.17
2019-05-20T10:04:15.270Z,72.95
2019-05-20T10:05:15.505Z,72.17
2019-05-20T10:06:15.738Z,71.98
2019-05-20T10:07:15.994Z,70.82
2019-05-20T10:08:16.210Z,70.04
2019-05-20T10:09:16.441Z,70.82
2019-05-20T10:10:16.677Z,70.62
2019-05-20T10:11:16.916Z,71.30
2019-05-20T10:12:17.155Z,72.95
2019-05-20T10:13:17.377Z,71.40
2019-05-20T10:14:17.614Z,70.27
2019-05-20T10:15:17.853Z,67.85
2019-05-20T10:16:18.090Z,67.98
2019-05-20T10:17:18.321Z,67.98
2019-05-20T10:18:35.620Z,67.40
2019-05-20T10:19:18.791Z,68.18
2019-05-20T10:20:19.029Z,69.67
2019-05-20T10:21:19.257Z,69.18
2019-05-20T10:22:19.492Z,67.53
2019-05-20T10:23:19.727Z,68.12
2019-05-20T10:24:19.963Z,69.27
2019-05-20T10:25:20.201Z,68.34
2019-05-20T10:26:20.428Z,68.18
2019-05-20T10:27:20.660Z,67.95
2019-05-20T10:28:20.942Z,67.37
2019-05-20T10:29:21.161Z,67.76
2019-05-20T10:30:21.371Z,65.82
2019-05-20T10:31:21.702Z,66.11
2019-05-20T10:32:21.833Z,65.53
2019-05-20T10:33:22.066Z,67.82
2019-05-20T10:34:22.295Z,67.92
2019-05-20T10:35:22.536Z,67.24
2019-05-20T10:36:22.770Z,65.89
2019-05-20T10:37:23.009Z,66.47
2019-05-20T10:38:23.243Z,66.53
2019-05-20T10:39:23.507Z,67.34
2019-05-20T10:40:23.730Z,65.30
2019-05-20T10:41:24.006Z,65.30
2019-05-20T10:42:24.205Z,67.72
2019-05-20T10:43:24.426Z,68.12
2019-05-20T10:44:24.658Z,67.44
2019-05-20T10:45:24.889Z,67.30
2019-05-20T10:46:25.130Z,69.92
2019-05-20T10:47:25.356Z,68.76
2019-05-20T10:48:25.591Z,69.37
2019-05-20T10:49:25.827Z,68.89
2019-05-20T10:50:26.061Z,68.63
2019-05-20T10:51:26.302Z,67.63
2019-05-20T10:52:26.525Z,67.11
2019-05-20T10:53:28.442Z,67.02
2019-05-20T10:54:26.992Z,67.69
2019-05-20T10:55:27.223Z,67.95
2019-05-20T10:56:27.458Z,69.31
2019-05-20T10:57:27.689Z,68.59
2019-05-20T10:58:27.924Z,69.46
2019-05-20T10:59:28.157Z,69.08
2019-05-20T11:00:28.392Z,69.17
2019-05-20T11:01:28.629Z,70.34
2019-05-20T11:02:31.353Z,71.56
2019-05-20T11:03:29.116Z,71.40
2019-05-20T11:04:29.358Z,72.36
2019-05-20T11:05:29.581Z,72.69
2019-05-20T11:06:29.815Z,71.53
2019-05-20T11:07:30.048Z,70.56
2019-05-20T11:08:30.291Z,71.53
2019-05-20T11:09:30.517Z,71.44
2019-05-20T11:10:30.756Z,70.40
2019-05-20T11:11:30.987Z,70.37
2019-05-20T11:12:31.228Z,70.56
2019-05-20T11:13:31.454Z,70.21
2019-05-20T11:14:31.685Z,69.82
2019-05-20T11:15:31.965Z,69.24
2019-05-20T11:16:32.155Z,68.85
2019-05-20T11:17:32.390Z,68.27
2019-05-20T11:18:32.624Z,68.89
2019-05-20T11:19:32.860Z,68.89
2019-05-20T11:20:33.089Z,68.02
2019-05-20T11:21:33.341Z,67.82
2019-05-20T11:22:33.551Z,68.30
2019-05-20T11:23:33.787Z,68.02
2019-05-20T11:24:34.018Z,68.60
2019-05-20T11:25:34.252Z,69.18
2019-05-20T11:26:34.488Z,68.12
2019-05-20T11:27:34.724Z,67.92
2019-05-20T11:28:34.952Z,67.40
2019-05-20T11:29:35.183Z,69.82
2019-05-20T11:30:35.421Z,69.63
2019-05-20T11:31:35.663Z,68.47
2019-05-20T11:32:35.886Z,70.05
2019-05-20T11:33:36.118Z,70.05
2019-05-20T11:34:36.751Z,69.18
2019-05-20T11:35:36.587Z,68.79
2019-05-20T11:36:36.823Z,69.76
2019-05-20T11:37:37.060Z,69.50
2019-05-20T11:38:37.291Z,67.95
2019-05-20T11:39:37.524Z,69.34
2019-05-20T11:40:37.754Z,69.15
2019-05-20T11:41:52.936Z,68.89
2019-05-20T11:42:38.224Z,67.89
2019-05-20T11:43:38.452Z,67.11
2019-05-20T11:44:38.716Z,67.02
2019-05-20T11:45:38.997Z,67.44
2019-05-20T11:46:39.160Z,68.08
2019-05-20T11:47:39.397Z,69.31
2019-05-20T11:48:39.629Z,70.66
2019-05-20T11:49:39.869Z,70.04
2019-05-20T11:50:40.102Z,70.82
2019-05-20T11:51:40.332Z,71.98
2019-05-20T11:52:40.575Z,72.72
2019-05-20T11:53:40.805Z,74.40
2019-05-20T11:54:41.040Z,74.69
2019-05-20T11:55:41.269Z,74.46
2019-05-20T11:56:41.515Z,74.55
2019-05-20T11:57:41.734Z,74.85
2019-05-20T11:58:41.977Z,76.87
2019-05-20T11:59:42.203Z,78.87
2019-05-20T12:00:42.439Z,78.48
2019-05-20T12:01:42.719Z,82.98
2019-05-20T12:02:42.906Z,82.07
2019-05-20T12:03:43.146Z,84.93
2019-05-20T12:04:43.376Z,88.50
2019-05-20T12:05:43.633Z,92.16
2019-05-20T12:06:43.836Z,94.15
2019-05-20T12:07:44.080Z,98.39
2019-05-20T12:08:44.303Z,97.81
2019-05-20T12:09:49.641Z,99.21
2019-05-20T12:10:44.769Z,99.99
2019-05-20T12:11:45.008Z,99.99
2019-05-20T12:12:46.182Z,99.99
2019-05-20T12:13:45.468Z,99.99
2019-05-20T12:14:45.696Z,99.99
2019-05-20T12:15:45.926Z,99.99
2019-05-20T12:16:46.156Z,99.99
2019-05-20T12:17:46.392Z,99.99
2019-05-20T12:18:46.616Z,99.99
2019-05-20T12:19:46.851Z,99.99
2019-05-20T12:20:47.082Z,99.99
2019-05-20T12:21:47.320Z,99.99
2019-05-20T12:22:47.558Z,99.99
2019-05-20T12:23:47.781Z,99.99
2019-05-20T12:24:48.014Z,99.99
2019-05-20T12:25:48.244Z,97.57
2019-05-20T12:26:48.516Z,96.99
2019-05-20T12:27:48.707Z,97.67
2019-05-20T12:28:48.938Z,99.99
2019-05-20T12:29:49.169Z,95.68
2019-05-20T12:30:49.404Z,97.24
2019-05-20T12:31:49.637Z,96.99
2019-05-20T12:32:49.878Z,98.15
2019-05-20T12:33:50.134Z,92.25
2019-05-20T12:34:50.363Z,88.68
2019-05-20T12:35:50.602Z,88.24
2019-05-20T12:36:50.845Z,86.69
2019-05-20T12:37:51.063Z,89.11
2019-05-20T12:38:51.304Z,87.76
2019-05-20T12:40:05.918Z,87.08
2019-05-20T12:40:51.765Z,83.41
2019-05-20T12:41:52.010Z,80.61
2019-05-20T12:42:52.231Z,81.52
2019-05-20T12:44:09.995Z,81.42
2019-05-20T12:44:52.697Z,81.90
2019-05-20T12:45:52.925Z,85.58
2019-05-20T12:46:53.164Z,81.07
2019-05-20T12:47:53.391Z,79.43
2019-05-20T12:48:53.692Z,80.30
2019-05-20T12:49:53.856Z,79.91
2019-05-20T12:50:54.087Z,79.43
2019-05-20T12:51:54.328Z,77.88
2019-05-20T12:52:54.554Z,79.14
2019-05-20T12:53:54.792Z,80.59
2019-05-20T12:55:06.893Z,77.59
2019-05-20T12:55:55.250Z,79.24